Time;durP1;ratioP1;P1;durP2;ratioP2;P2;SDS_P1;SDS_P2;PMS_P1;PMS_P2;Temp;Humidity;BMP_temperature;BMP_pressure;BME280_temperature;BME280_humidity;BME280_pressure;Samples;Min_cycle;Max_cycle;Signal;HPM_P1;HPM_P2
2022/08/16 00:00:47;;;;;;;2.38;1.48;;;26.40;47.70;;;;;;5079106;28;20046;-42
2022/08/16 00:03:12;;;;;;;2.30;1.48;;;26.40;47.70;;;;;;5076435;28;20453;-42
2022/08/16 00:05:38;;;;;;;4.22;1.65;;;26.40;47.70;;;;;;5078368;28;20044;-42
2022/08/16 00:08:04;;;;;;;3.25;1.42;;;26.40;47.80;;;;;;5080434;28;20373;-46
2022/08/16 00:10:32;;;;;;;2.38;1.63;;;26.40;47.80;;;;;;5079048;28;20067;-42
2022/08/16 00:12:59;;;;;;;1.88;1.30;;;26.40;47.80;;;;;;5079826;28;20028;-51
2022/08/16 00:15:35;;;;;;;1.98;1.48;;;26.40;47.90;;;;;;5080987;28;20064;-43
2022/08/16 00:18:01;;;;;;;3.17;1.65;;;26.40;47.90;;;;;;5071961;28;20050;-43
2022/08/16 00:20:27;;;;;;;1.67;1.58;;;26.40;47.90;;;;;;5077922;28;20024;-42
2022/08/16 00:22:53;;;;;;;2.08;1.30;;;26.40;47.90;;;;;;5079454;28;20050;-42
2022/08/16 00:25:21;;;;;;;2.25;1.58;;;26.30;47.90;;;;;;5079399;28;20053;-43
2022/08/16 00:27:47;;;;;;;2.10;1.30;;;26.30;47.90;;;;;;5081369;28;20028;-42
2022/08/16 00:30:15;;;;;;;1.55;1.42;;;26.40;48.00;;;;;;5078641;28;20027;-42
2022/08/16 00:32:44;;;;;;;2.63;2.03;;;26.30;47.90;;;;;;5077883;28;20098;-42
2022/08/16 00:35:13;;;;;;;1.67;1.40;;;26.30;47.90;;;;;;5075637;28;20035;-42
2022/08/16 00:37:38;;;;;;;1.42;1.27;;;26.30;47.90;;;;;;5080236;28;20039;-42
2022/08/16 00:40:06;;;;;;;2.40;1.48;;;26.30;47.90;;;;;;5078229;28;20028;-48
2022/08/16 00:42:32;;;;;;;1.85;1.33;;;26.30;48.00;;;;;;5076516;28;20090;-42
2022/08/16 00:45:03;;;;;;;3.00;1.40;;;26.30;48.00;;;;;;5072324;28;20021;-51
2022/08/16 00:47:29;;;;;;;3.72;1.50;;;26.30;48.00;;;;;;5071892;28;20043;-42
2022/08/16 00:49:55;;;;;;;2.10;1.60;;;26.30;48.00;;;;;;5071318;28;20029;-50
2022/08/16 00:52:21;;;;;;;4.07;1.60;;;26.30;48.00;;;;;;5080682;28;20477;-44
2022/08/16 00:54:47;;;;;;;2.35;1.50;;;26.30;48.00;;;;;;5093202;28;20050;-42
2022/08/16 00:57:13;;;;;;;2.42;1.88;;;26.30;48.00;;;;;;5094998;28;20034;-42
2022/08/16 00:59:39;;;;;;;2.25;1.80;;;26.30;47.90;;;;;;5082194;28;20469;-43
2022/08/16 01:02:07;;;;;;;3.80;1.67;;;26.30;48.00;;;;;;5073578;28;20029;-42
2022/08/16 01:04:34;;;;;;;2.17;1.60;;;26.30;48.00;;;;;;5066732;28;20095;-42
2022/08/16 01:07:03;;;;;;;1.92;1.40;;;26.30;48.00;;;;;;5057908;28;20032;-46
2022/08/16 01:09:33;;;;;;;1.77;1.55;;;26.30;48.00;;;;;;5075695;28;20244;-43
2022/08/16 01:11:59;;;;;;;2.80;1.70;;;26.30;48.00;;;;;;5057851;28;20029;-51
2022/08/16 01:14:33;;;;;;;2.17;1.83;;;26.30;48.10;;;;;;5055476;28;20025;-42
2022/08/16 01:17:01;;;;;;;2.65;1.55;;;26.30;48.10;;;;;;5054790;28;20025;-51
2022/08/16 01:19:38;;;;;;;4.10;1.85;;;26.30;48.20;;;;;;5055355;28;20017;-42
2022/08/16 01:22:33;;;;;;;4.50;1.70;;;26.30;48.20;;;;;;5053351;28;20466;-45
2022/08/16 01:25:05;;;;;;;2.15;1.50;;;26.30;48.20;;;;;;5074681;28;20052;-50
2022/08/16 01:27:36;;;;;;;3.22;1.80;;;26.30;48.20;;;;;;5073264;28;20036;-45
2022/08/16 01:30:30;;;;;;;2.10;1.60;;;26.30;48.20;;;;;;5074343;28;20021;-46
2022/08/16 01:33:01;;;;;;;4.40;1.70;;;26.30;48.30;;;;;;5075137;28;20028;-47
2022/08/16 01:35:32;;;;;;;3.08;1.55;;;26.30;48.20;;;;;;5074609;28;20025;-42
2022/08/16 01:38:18;;;;;;;2.30;1.63;;;26.30;48.30;;;;;;5074561;28;20033;-52
2022/08/16 01:40:44;;;;;;;3.60;1.88;;;26.30;48.30;;;;;;5042366;28;20048;-42
2022/08/16 01:43:10;;;;;;;3.33;1.60;;;26.30;48.30;;;;;;5053897;28;20036;-43
2022/08/16 01:45:36;;;;;;;2.83;1.70;;;26.30;48.40;;;;;;5054482;28;20381;-42
2022/08/16 01:48:03;;;;;;;2.03;1.63;;;26.30;48.40;;;;;;5054103;28;20062;-52
2022/08/16 01:50:29;;;;;;;2.92;1.73;;;26.30;48.40;;;;;;5054702;28;20029;-42
2022/08/16 01:52:54;;;;;;;1.40;1.30;;;26.30;48.50;;;;;;5087711;28;20023;-42
2022/08/16 01:55:22;;;;;;;3.47;1.70;;;26.30;48.50;;;;;;5087718;28;20021;-42
2022/08/16 01:57:48;;;;;;;1.98;1.77;;;26.30;48.50;;;;;;5072258;28;20032;-42
2022/08/16 02:00:15;;;;;;;2.15;1.52;;;26.30;48.50;;;;;;5073019;28;20108;-42
2022/08/16 02:02:42;;;;;;;2.20;1.70;;;26.30;48.50;;;;;;5074440;28;20047;-42
2022/08/16 02:05:10;;;;;;;3.35;1.65;;;26.30;48.60;;;;;;5073238;28;20064;-42
2022/08/16 02:07:37;;;;;;;2.33;2.13;;;26.30;48.70;;;;;;5073193;28;20120;-43
2022/08/16 02:10:05;;;;;;;2.95;1.85;;;26.30;48.60;;;;;;5073707;28;20107;-51
2022/08/16 02:12:31;;;;;;;1.83;1.50;;;26.30;48.60;;;;;;5072328;28;20119;-42
2022/08/16 02:14:57;;;;;;;2.13;1.92;;;26.30;48.60;;;;;;5074427;28;20025;-43
2022/08/16 02:17:23;;;;;;;2.10;1.80;;;26.30;48.60;;;;;;5073421;28;20174;-42
2022/08/16 02:19:50;;;;;;;1.98;1.40;;;26.30;48.70;;;;;;5074104;28;20480;-42
2022/08/16 02:22:20;;;;;;;3.75;1.70;;;26.30;48.70;;;;;;5073335;28;20036;-42
2022/08/16 02:24:46;;;;;;;2.03;1.50;;;26.30;48.70;;;;;;5073937;28;20024;-43
2022/08/16 02:27:12;;;;;;;2.03;1.73;;;26.30;48.70;;;;;;5064536;28;20103;-43
2022/08/16 02:29:38;;;;;;;3.58;1.65;;;26.30;48.70;;;;;;5053850;28;20082;-44
2022/08/16 02:32:05;;;;;;;3.42;1.73;;;26.30;48.70;;;;;;5053206;28;20029;-53
2022/08/16 02:34:30;;;;;;;2.25;1.50;;;26.30;48.80;;;;;;5054079;28;20029;-43
2022/08/16 02:36:56;;;;;;;4.03;2.20;;;26.20;48.80;;;;;;5053709;28;20029;-42
2022/08/16 02:39:22;;;;;;;1.85;1.50;;;26.30;48.80;;;;;;5052945;28;20021;-43
2022/08/16 02:41:50;;;;;;;2.85;2.08;;;26.30;48.80;;;;;;5053742;28;20459;-43
2022/08/16 02:44:16;;;;;;;3.20;1.80;;;26.30;48.80;;;;;;5064575;28;20471;-42
2022/08/16 02:46:43;;;;;;;1.63;1.40;;;26.30;48.80;;;;;;5073317;28;20166;-42
2022/08/16 02:49:10;;;;;;;2.25;1.55;;;26.30;48.80;;;;;;5072875;28;20044;-44
2022/08/16 02:51:38;;;;;;;2.13;1.73;;;26.30;48.80;;;;;;5073551;28;20032;-42
2022/08/16 02:54:05;;;;;;;5.53;2.03;;;26.30;48.40;;;;;;5072920;28;20040;-51
2022/08/16 02:56:31;;;;;;;2.20;1.52;;;26.30;48.90;;;;;;5073251;28;20039;-45
2022/08/16 02:58:56;;;;;;;2.05;1.73;;;26.30;48.90;;;;;;5071609;28;20107;-42
2022/08/16 03:01:25;;;;;;;3.58;2.25;;;26.30;48.90;;;;;;5071005;28;20039;-42
2022/08/16 03:03:53;;;;;;;3.15;1.73;;;26.30;48.90;;;;;;5072797;28;20412;-43
2022/08/16 03:06:20;;;;;;;3.00;1.92;;;26.30;48.90;;;;;;5072402;28;20036;-44
2022/08/16 03:08:47;;;;;;;3.55;1.67;;;26.30;48.90;;;;;;5072432;28;20082;-44
2022/08/16 03:11:15;;;;;;;3.35;1.75;;;26.30;48.90;;;;;;5072314;28;20059;-42
2022/08/16 03:13:41;;;;;;;2.28;1.60;;;26.30;48.80;;;;;;5072993;28;20519;-42
2022/08/16 03:16:07;;;;;;;2.72;1.88;;;26.30;48.90;;;;;;5072287;28;20028;-50
2022/08/16 03:18:33;;;;;;;2.65;1.77;;;26.30;48.90;;;;;;5071408;28;20497;-42
2022/08/16 03:20:58;;;;;;;2.33;1.70;;;26.30;48.90;;;;;;5073020;28;20074;-43
2022/08/16 03:23:25;;;;;;;2.30;2.05;;;26.30;48.80;;;;;;5071984;28;20250;-45
2022/08/16 03:25:51;;;;;;;2.35;1.85;;;26.20;48.80;;;;;;5072670;28;20044;-42
2022/08/16 03:28:17;;;;;;;3.22;1.98;;;26.30;48.90;;;;;;5056760;28;20037;-43
2022/08/16 03:30:42;;;;;;;3.55;1.80;;;26.30;48.90;;;;;;5052885;28;20036;-43
2022/08/16 03:33:08;;;;;;;2.13;1.88;;;26.30;48.90;;;;;;5053335;28;20928;-45
2022/08/16 03:35:36;;;;;;;2.30;1.70;;;26.30;48.90;;;;;;5072826;28;20025;-43
2022/08/16 03:38:04;;;;;;;4.82;2.03;;;26.20;48.80;;;;;;5072647;28;20032;-42
2022/08/16 03:40:32;;;;;;;1.65;1.40;;;26.20;48.80;;;;;;5071983;28;20038;-42
2022/08/16 03:42:58;;;;;;;3.78;1.70;;;26.20;48.80;;;;;;5072799;28;20028;-45
2022/08/16 03:45:24;;;;;;;2.22;1.83;;;26.20;48.90;;;;;;5071798;28;20377;-42
2022/08/16 03:47:50;;;;;;;1.90;1.70;;;26.30;49.00;;;;;;5072186;28;20044;-43
2022/08/16 03:50:17;;;;;;;2.58;1.95;;;26.20;49.00;;;;;;5070297;28;20043;-42
2022/08/16 03:52:43;;;;;;;3.28;1.50;;;26.20;49.00;;;;;;5087318;28;20111;-43
2022/08/16 03:55:10;;;;;;;2.25;1.35;;;26.20;49.00;;;;;;5073747;28;20200;-51
2022/08/16 03:57:36;;;;;;;2.90;1.90;;;26.20;49.70;;;;;;5070222;28;20040;-42
2022/08/16 04:00:15;;;;;;;4.68;2.70;;;26.20;49.10;;;;;;5072307;28;20071;-42
2022/08/16 04:02:41;;;;;;;2.50;1.92;;;26.20;49.10;;;;;;5072233;28;20029;-42
2022/08/16 04:05:08;;;;;;;2.17;1.85;;;26.20;49.10;;;;;;5071418;28;20041;-51
2022/08/16 04:07:35;;;;;;;11.80;2.08;;;26.20;49.20;;;;;;5070287;28;20584;-44
2022/08/16 04:10:01;;;;;;;2.47;1.80;;;26.20;49.80;;;;;;5072124;28;20074;-43
2022/08/16 04:12:26;;;;;;;5.15;1.88;;;26.20;49.20;;;;;;5071219;28;20128;-42
2022/08/16 04:14:52;;;;;;;2.17;1.77;;;26.20;49.20;;;;;;5071745;28;20440;-42
2022/08/16 04:17:17;;;;;;;2.20;1.70;;;26.20;49.10;;;;;;5071397;28;20024;-43
2022/08/16 04:19:46;;;;;;;3.20;2.10;;;26.20;49.20;;;;;;5072002;28;20051;-42
2022/08/16 04:22:12;;;;;;;2.25;1.70;;;26.20;49.20;;;;;;5071621;28;20389;-43
2022/08/16 04:24:38;;;;;;;2.83;2.15;;;26.20;49.10;;;;;;5069639;28;20025;-42
2022/08/16 04:27:04;;;;;;;2.20;1.88;;;26.20;49.10;;;;;;5069693;28;20047;-42
2022/08/16 04:29:30;;;;;;;2.53;2.08;;;26.20;49.20;;;;;;5070650;28;20517;-42
2022/08/16 04:31:56;;;;;;;2.25;1.92;;;26.20;49.20;;;;;;5071389;28;20051;-43
2022/08/16 04:34:23;;;;;;;4.57;1.85;;;26.20;49.30;;;;;;5071107;28;20450;-43
2022/08/16 04:36:49;;;;;;;2.80;1.77;;;26.20;49.30;;;;;;5071944;28;20075;-42
2022/08/16 04:39:14;;;;;;;2.42;1.80;;;26.20;49.20;;;;;;5069156;28;20021;-43
2022/08/16 04:41:41;;;;;;;3.22;1.95;;;26.20;49.30;;;;;;5071374;28;20032;-42
2022/08/16 04:44:06;;;;;;;2.70;1.90;;;26.20;49.30;;;;;;5071787;28;20025;-42
2022/08/16 04:46:32;;;;;;;3.15;1.90;;;26.20;49.30;;;;;;5070833;28;20028;-42
2022/08/16 04:48:58;;;;;;;3.30;1.75;;;26.20;49.40;;;;;;5071845;28;20044;-42
2022/08/16 04:51:24;;;;;;;3.28;1.88;;;26.20;49.40;;;;;;5070984;28;20508;-42
2022/08/16 04:53:49;;;;;;;2.95;2.00;;;26.20;49.40;;;;;;5071799;28;20035;-42
2022/08/16 04:56:17;;;;;;;3.88;2.17;;;26.10;49.30;;;;;;5068728;28;20055;-43
2022/08/16 04:58:44;;;;;;;2.85;1.70;;;26.20;49.40;;;;;;5069941;28;20094;-42
2022/08/16 05:01:09;;;;;;;2.85;1.92;;;26.20;49.50;;;;;;5071261;28;20021;-51
2022/08/16 05:03:35;;;;;;;3.58;1.90;;;26.20;49.50;;;;;;5071132;28;20028;-42
2022/08/16 05:06:01;;;;;;;2.10;1.90;;;26.20;49.50;;;;;;5070100;28;20485;-42
2022/08/16 05:08:28;;;;;;;2.35;1.80;;;26.20;50.10;;;;;;5070601;28;20024;-45
2022/08/16 05:10:54;;;;;;;4.18;2.00;;;26.20;49.50;;;;;;5071539;28;20028;-43
2022/08/16 05:13:19;;;;;;;2.58;1.85;;;26.20;49.50;;;;;;5068979;28;20461;-42
2022/08/16 05:15:46;;;;;;;2.67;2.00;;;26.20;49.60;;;;;;5071291;28;20036;-42
2022/08/16 05:18:13;;;;;;;2.17;1.90;;;26.20;49.60;;;;;;5070979;28;20028;-51
2022/08/16 05:20:39;;;;;;;3.65;1.85;;;26.20;49.60;;;;;;5071043;28;20482;-42
2022/08/16 05:23:04;;;;;;;3.25;2.05;;;26.20;49.60;;;;;;5071520;28;20041;-42
2022/08/16 05:25:30;;;;;;;2.33;1.83;;;26.20;49.70;;;;;;5070897;28;20034;-42
2022/08/16 05:27:58;;;;;;;2.53;1.98;;;26.20;50.30;;;;;;5064073;28;20490;-43
2022/08/16 05:30:24;;;;;;;2.83;2.05;;;26.20;49.70;;;;;;5070644;28;20036;-42
2022/08/16 05:32:50;;;;;;;2.53;1.90;;;26.20;49.80;;;;;;5071486;28;20036;-42
2022/08/16 05:35:16;;;;;;;2.67;1.88;;;26.20;49.80;;;;;;5069952;28;20037;-42
2022/08/16 05:37:42;;;;;;;4.93;1.92;;;26.10;49.80;;;;;;5071396;28;20467;-42
2022/08/16 05:40:10;;;;;;;2.63;2.08;;;26.20;49.90;;;;;;5071983;28;20108;-46
2022/08/16 05:42:36;;;;;;;4.22;2.30;;;26.10;50.00;;;;;;5073647;28;20093;-45
2022/08/16 05:45:02;;;;;;;3.45;2.25;;;25.90;51.40;;;;;;5073046;28;20029;-48
2022/08/16 05:47:28;;;;;;;4.07;2.33;;;25.60;52.30;;;;;;5074066;28;20033;-44
2022/08/16 05:49:53;;;;;;;3.13;2.17;;;25.40;53.00;;;;;;5074710;28;20067;-47
2022/08/16 05:52:19;;;;;;;2.85;2.00;;;25.30;53.50;;;;;;5065538;28;20075;-46
2022/08/16 05:54:45;;;;;;;3.85;2.40;;;25.20;53.80;;;;;;5062086;28;20021;-46
2022/08/16 05:57:11;;;;;;;3.38;2.50;;;25.20;54.00;;;;;;5073048;28;20032;-45
2022/08/16 05:59:37;;;;;;;5.25;2.60;;;25.10;54.10;;;;;;5077071;28;20040;-49
2022/08/16 06:02:04;;;;;;;3.15;2.05;;;25.10;54.00;;;;;;5070470;28;20480;-44
2022/08/16 06:04:30;;;;;;;5.18;2.53;;;25.10;54.20;;;;;;5075177;28;20045;-45
2022/08/16 06:06:56;;;;;;;3.60;2.25;;;25.10;54.40;;;;;;5065221;28;20094;-44
2022/08/16 06:09:22;;;;;;;4.18;2.42;;;25.10;54.80;;;;;;5053372;28;20025;-46
2022/08/16 06:11:47;;;;;;;4.22;2.38;;;25.10;54.60;;;;;;5054070;28;20028;-44
2022/08/16 06:14:13;;;;;;;6.35;2.50;;;25.00;54.70;;;;;;5053713;28;20036;-53
2022/08/16 06:16:39;;;;;;;4.68;2.45;;;25.00;55.00;;;;;;5053640;28;20033;-44
2022/08/16 06:19:05;;;;;;;4.88;2.88;;;25.00;55.30;;;;;;5053477;28;20037;-45
2022/08/16 06:21:31;;;;;;;3.75;2.20;;;24.90;55.40;;;;;;5052873;28;20036;-45
2022/08/16 06:23:57;;;;;;;4.70;2.60;;;24.90;55.40;;;;;;5055472;28;20028;-45
2022/08/16 06:26:22;;;;;;;3.97;2.40;;;24.90;55.40;;;;;;5071475;28;20120;-45
2022/08/16 06:28:48;;;;;;;7.60;2.88;;;24.90;55.50;;;;;;5064374;28;20484;-42
2022/08/16 06:31:15;;;;;;;5.07;2.47;;;24.90;55.50;;;;;;5074227;28;20020;-52
2022/08/16 06:33:41;;;;;;;3.30;2.03;;;24.90;55.60;;;;;;5069158;28;20169;-45
2022/08/16 06:36:08;;;;;;;4.03;2.60;;;24.90;55.60;;;;;;5067827;28;20107;-46
2022/08/16 06:38:34;;;;;;;8.73;2.60;;;24.90;55.60;;;;;;5083441;28;20588;-47
2022/08/16 06:41:05;;;;;;;5.55;2.50;;;24.80;55.40;;;;;;5084503;28;20389;-47
2022/08/16 06:43:32;;;;;;;4.68;2.42;;;24.80;55.50;;;;;;5071336;28;20039;-43
2022/08/16 06:45:58;;;;;;;3.83;2.30;;;24.90;55.20;;;;;;5065500;28;20048;-44
2022/08/16 06:48:23;;;;;;;4.75;2.60;;;24.90;55.20;;;;;;5084321;28;20024;-47
2022/08/16 06:50:51;;;;;;;3.25;2.22;;;24.90;55.10;;;;;;5091704;28;20046;-45
2022/08/16 06:53:17;;;;;;;3.83;2.40;;;24.90;55.00;;;;;;5099451;28;20472;-52
2022/08/16 06:55:43;;;;;;;4.63;2.50;;;24.90;55.00;;;;;;5100286;28;21398;-44
2022/08/16 06:58:09;;;;;;;5.22;2.58;;;25.00;54.90;;;;;;5092833;28;20020;-43
2022/08/16 07:00:35;;;;;;;7.22;2.50;;;25.00;54.80;;;;;;5087646;28;20024;-42
2022/08/16 07:03:01;;;;;;;5.63;2.25;;;25.00;54.80;;;;;;5097277;28;20020;-42
2022/08/16 07:05:30;;;;;;;6.13;2.47;;;25.00;54.90;;;;;;5093314;28;20070;-42
2022/08/16 07:07:56;;;;;;;4.38;2.45;;;25.00;55.00;;;;;;5095513;28;20044;-45
2022/08/16 07:10:23;;;;;;;6.35;2.88;;;25.00;54.70;;;;;;5088425;28;20028;-46
2022/08/16 07:12:49;;;;;;;5.93;2.60;;;25.00;54.90;;;;;;5085564;28;20422;-46
2022/08/16 07:15:16;;;;;;;4.07;2.20;;;25.00;54.40;;;;;;5102198;28;20031;-51
2022/08/16 07:17:43;;;;;;;4.07;2.70;;;25.00;54.40;;;;;;5094571;28;20111;-42
2022/08/16 07:20:11;;;;;;;3.42;2.45;;;25.00;54.30;;;;;;5090225;28;20020;-42
2022/08/16 07:22:38;;;;;;;3.05;2.22;;;25.00;54.20;;;;;;5084983;28;20032;-42
2022/08/16 07:25:10;;;;;;;4.90;2.35;;;25.10;54.20;;;;;;5080185;28;20019;-42
2022/08/16 07:27:36;;;;;;;;;;;25.00;54.30;;;;;;5095351;28;20700;-44
2022/08/16 07:30:07;;;;;;;4.45;2.45;;;25.10;54.20;;;;;;5097546;28;19991;-44
2022/08/16 07:32:33;;;;;;;3.42;2.25;;;25.10;54.10;;;;;;5094133;28;20028;-44
2022/08/16 07:34:58;;;;;;;5.10;3.13;;;25.10;54.10;;;;;;5105602;28;20023;-48
2022/08/16 07:37:24;;;;;;;4.03;2.55;;;25.20;53.90;;;;;;5090583;28;20036;-47
2022/08/16 07:39:50;;;;;;;4.88;2.63;;;25.20;53.90;;;;;;5087098;28;20366;-46
2022/08/16 07:42:16;;;;;;;5.05;2.30;;;25.20;53.90;;;;;;5097756;28;20036;-53
2022/08/16 07:44:42;;;;;;;4.68;2.20;;;25.30;53.70;;;;;;5104881;28;20036;-43
2022/08/16 07:47:07;;;;;;;5.03;2.78;;;25.30;53.50;;;;;;5099476;28;20027;-42
2022/08/16 07:49:33;;;;;;;4.55;2.42;;;25.40;53.40;;;;;;5090568;28;20444;-48
2022/08/16 07:51:58;;;;;;;4.95;2.63;;;25.40;53.30;;;;;;5085912;28;20039;-43
2022/08/16 07:54:24;;;;;;;4.70;2.50;;;25.50;53.20;;;;;;5089148;28;20039;-48
2022/08/16 07:56:50;;;;;;;3.92;2.60;;;25.50;53.00;;;;;;5095733;28;20035;-45
2022/08/16 07:59:16;;;;;;;4.57;2.35;;;25.60;52.90;;;;;;5096751;28;20070;-51
2022/08/16 08:01:41;;;;;;;5.65;2.55;;;25.60;52.80;;;;;;5095169;28;20046;-42
2022/08/16 08:04:12;;;;;;;4.65;2.70;;;25.70;53.00;;;;;;5089593;28;20059;-42
2022/08/16 08:06:39;;;;;;;3.47;2.20;;;25.70;53.20;;;;;;5094930;28;20429;-41
2022/08/16 08:09:05;;;;;;;5.88;2.60;;;25.70;53.20;;;;;;5092869;28;20465;-41
2022/08/16 08:11:32;;;;;;;5.38;2.47;;;25.80;53.50;;;;;;5082792;28;20040;-42
2022/08/16 08:13:59;;;;;;;4.07;2.20;;;25.80;53.30;;;;;;5098556;28;20025;-41
2022/08/16 08:16:26;;;;;;;2.72;2.22;;;25.80;53.20;;;;;;5090914;28;20024;-44
2022/08/16 08:18:53;;;;;;;4.38;2.70;;;25.80;53.30;;;;;;5093270;28;20026;-43
2022/08/16 08:21:20;;;;;;;2.60;2.40;;;25.80;53.60;;;;;;5099264;28;20463;-52
2022/08/16 08:23:47;;;;;;;3.15;2.20;;;25.80;53.80;;;;;;5097844;28;20518;-48
2022/08/16 08:26:13;;;;;;;6.18;2.70;;;25.90;53.80;;;;;;5086262;28;20036;-46
2022/08/16 08:28:39;;;;;;;3.55;2.50;;;25.80;53.80;;;;;;5089416;28;20043;-43
2022/08/16 08:31:06;;;;;;;5.78;3.05;;;25.90;53.80;;;;;;5090541;28;20036;-42
2022/08/16 08:33:32;;;;;;;6.72;3.10;;;25.80;53.90;;;;;;5097376;28;20020;-43
2022/08/16 08:36:00;;;;;;;4.60;2.78;;;25.80;53.80;;;;;;5084220;28;20099;-42
2022/08/16 08:38:27;;;;;;;5.70;2.65;;;25.80;54.00;;;;;;5098955;28;20047;-42
2022/08/16 08:40:53;;;;;;;8.65;2.95;;;25.80;54.00;;;;;;5091857;28;20428;-44
2022/08/16 08:43:19;;;;;;;3.78;3.10;;;25.80;54.20;;;;;;5090840;28;20036;-53
2022/08/16 08:45:44;;;;;;;3.70;2.83;;;25.70;54.00;;;;;;5094404;28;20059;-42
2022/08/16 08:48:10;;;;;;;5.28;3.25;;;25.80;54.10;;;;;;5102370;28;20024;-49
2022/08/16 08:50:37;;;;;;;5.45;4.00;;;25.70;53.90;;;;;;5091671;28;20020;-43
2022/08/16 08:53:02;;;;;;;4.43;2.58;;;25.70;54.00;;;;;;5093306;28;20028;-43
2022/08/16 08:55:30;;;;;;;5.38;2.90;;;25.70;53.90;;;;;;5103280;28;20480;-48
2022/08/16 08:57:55;;;;;;;4.60;2.45;;;25.70;54.10;;;;;;5091848;28;20031;-50
2022/08/16 09:00:24;;;;;;;4.55;2.92;;;25.70;54.20;;;;;;5093529;28;20031;-43
2022/08/16 09:02:50;;;;;;;4.82;2.58;;;25.70;54.10;;;;;;5088185;28;20358;-48
2022/08/16 09:05:17;;;;;;;5.97;2.95;;;25.70;53.80;;;;;;5092806;28;20044;-43
2022/08/16 09:07:44;;;;;;;6.30;3.70;;;25.80;53.60;;;;;;5100759;28;20063;-43
2022/08/16 09:10:11;;;;;;;7.50;3.30;;;25.70;53.60;;;;;;5093936;28;20024;-43
2022/08/16 09:12:38;;;;;;;6.35;3.10;;;25.70;53.60;;;;;;5096256;28;20034;-43
2022/08/16 09:15:05;;;;;;;8.77;3.78;;;25.70;53.80;;;;;;5095355;28;20017;-43
2022/08/16 09:17:31;;;;;;;6.15;3.50;;;25.70;53.70;;;;;;5099767;28;20119;-43
2022/08/16 09:19:57;;;;;;;19.20;4.00;;;25.70;53.70;;;;;;5099738;28;20091;-42
2022/08/16 09:22:24;;;;;;;18.90;5.00;;;25.80;53.80;;;;;;5106835;28;20023;-43
2022/08/16 09:24:50;;;;;;;9.57;2.95;;;25.70;53.60;;;;;;5101071;28;20103;-50
2022/08/16 09:27:16;;;;;;;6.13;3.10;;;25.80;53.30;;;;;;5097580;28;20031;-43
2022/08/16 09:29:42;;;;;;;11.93;3.33;;;25.90;53.20;;;;;;5103024;28;20437;-50
2022/08/16 09:32:08;;;;;;;4.00;2.42;;;25.90;53.10;;;;;;5089839;28;20037;-45
2022/08/16 09:34:34;;;;;;;6.20;2.70;;;26.00;53.10;;;;;;5092288;28;20030;-45
2022/08/16 09:36:59;;;;;;;4.47;2.83;;;26.00;53.10;;;;;;5089207;28;20026;-44
2022/08/16 09:39:25;;;;;;;5.53;2.97;;;26.00;53.00;;;;;;5096831;28;20024;-43
2022/08/16 09:41:57;;;;;;;4.90;2.65;;;26.00;53.00;;;;;;5090878;28;20051;-43
2022/08/16 09:44:24;;;;;;;7.00;2.85;;;26.00;53.00;;;;;;5101396;28;20031;-45
2022/08/16 09:46:51;;;;;;;4.60;2.65;;;26.10;52.90;;;;;;5105860;28;20036;-46
2022/08/16 09:49:17;;;;;;;4.55;2.80;;;26.10;52.90;;;;;;5091505;28;20024;-44
2022/08/16 09:51:42;;;;;;;6.07;2.42;;;26.10;53.00;;;;;;5096575;28;20032;-45
2022/08/16 09:54:12;;;;;;;8.80;3.00;;;26.10;53.10;;;;;;5099344;28;20046;-42
2022/08/16 09:56:39;;;;;;;5.28;2.63;;;26.10;53.10;;;;;;5102823;28;20111;-43
2022/08/16 09:59:10;;;;;;;2.95;2.20;;;26.20;53.10;;;;;;5107124;28;20023;-43
2022/08/16 10:01:37;;;;;;;3.67;2.85;;;26.20;53.00;;;;;;5101511;28;20032;-42
2022/08/16 10:04:04;;;;;;;3.83;2.47;;;26.20;53.00;;;;;;5095894;28;20067;-44
2022/08/16 10:06:30;;;;;;;3.75;2.42;;;26.20;53.00;;;;;;5097076;28;20126;-45
2022/08/16 10:08:55;;;;;;;4.78;2.60;;;26.20;53.00;;;;;;5094805;28;20150;-42
2022/08/16 10:14:05;;;;;;;4.90;2.47;;;26.20;53.00;;;;;;5091948;28;20090;-42
2022/08/16 10:16:32;;;;;;;4.78;2.78;;;26.20;52.80;;;;;;5094527;28;20471;-44
2022/08/16 10:18:58;;;;;;;5.68;2.47;;;26.20;52.70;;;;;;5095194;28;20039;-45
2022/08/16 10:21:24;;;;;;;6.60;2.70;;;26.30;52.80;;;;;;5099738;28;20035;-41
2022/08/16 10:23:53;;;;;;;6.30;2.45;;;26.30;52.70;;;;;;5098215;28;20021;-44
2022/08/16 10:26:20;;;;;;;6.00;2.70;;;26.30;52.60;;;;;;5100410;28;20090;-52
2022/08/16 10:28:46;;;;;;;5.93;2.35;;;26.30;52.50;;;;;;5092615;28;20528;-44
2022/08/16 10:31:12;;;;;;;4.45;2.60;;;26.30;52.50;;;;;;5085603;28;20377;-45
2022/08/16 10:33:38;;;;;;;4.03;2.67;;;26.30;52.50;;;;;;5102020;28;20028;-46
2022/08/16 10:36:06;;;;;;;5.45;2.65;;;26.30;52.50;;;;;;5097455;28;20028;-45
2022/08/16 10:38:35;;;;;;;3.95;2.17;;;26.30;52.50;;;;;;5083163;28;20043;-44
2022/08/16 10:41:01;;;;;;;7.68;2.80;;;26.30;52.50;;;;;;5101663;28;20032;-42
2022/08/16 10:43:27;;;;;;;8.73;2.60;;;26.30;52.40;;;;;;5089183;28;20024;-49
2022/08/16 10:45:53;;;;;;;2.92;2.22;;;26.30;52.40;;;;;;5085914;28;20035;-42
2022/08/16 10:48:19;;;;;;;2.92;2.30;;;26.30;52.40;;;;;;5086212;28;20380;-43
2022/08/16 10:50:45;;;;;;;3.78;2.60;;;26.30;52.60;;;;;;5098602;28;20032;-43
2022/08/16 10:53:11;;;;;;;3.65;2.28;;;26.30;52.60;;;;;;5093954;28;20024;-42
2022/08/16 10:55:40;;;;;;;2.20;2.00;;;26.30;52.50;;;;;;5093695;28;20038;-42
2022/08/16 10:58:09;;;;;;;4.25;2.30;;;26.30;52.60;;;;;;5105269;28;20027;-43
2022/08/16 11:00:38;;;;;;;3.60;2.65;;;26.30;52.50;;;;;;5095573;28;20111;-44
2022/08/16 11:03:05;;;;;;;8.55;2.20;;;26.30;52.50;;;;;;5091764;28;20024;-42
2022/08/16 11:05:32;;;;;;;4.85;2.35;;;26.30;52.30;;;;;;5097892;28;20094;-42
2022/08/16 11:08:00;;;;;;;3.95;2.50;;;26.40;52.50;;;;;;5094466;28;20032;-45
2022/08/16 11:10:31;;;;;;;4.25;2.85;;;26.40;52.40;;;;;;5093615;28;20024;-42
2022/08/16 11:12:57;;;;;;;3.72;1.90;;;26.40;52.50;;;;;;5103498;28;20458;-42
2022/08/16 11:15:23;;;;;;;2.85;2.55;;;26.40;52.50;;;;;;5096069;28;20030;-53
2022/08/16 11:17:52;;;;;;;3.72;2.20;;;26.40;52.50;;;;;;5092338;28;20064;-42
2022/08/16 11:20:18;;;;;;;5.32;2.60;;;26.40;52.50;;;;;;5099913;28;20373;-43
2022/08/16 11:22:46;;;;;;;2.33;1.92;;;26.30;52.50;;;;;;5096181;28;20026;-42
2022/08/16 11:25:14;;;;;;;4.13;2.22;;;26.40;52.60;;;;;;5093666;28;20377;-42
2022/08/16 11:27:40;;;;;;;3.17;2.58;;;26.40;52.60;;;;;;5094433;28;20043;-42
2022/08/16 11:30:10;;;;;;;3.13;2.40;;;26.40;52.60;;;;;;5085039;28;20032;-42
2022/08/16 11:32:36;;;;;;;3.05;2.22;;;26.40;52.60;;;;;;5093663;28;20108;-44
2022/08/16 11:35:06;;;;;;;2.67;2.08;;;26.40;52.70;;;;;;5094859;28;20047;-42
2022/08/16 11:37:33;;;;;;;2.27;2.03;;;26.40;52.70;;;;;;5101613;28;20089;-43
2022/08/16 11:40:00;;;;;;;2.53;2.00;;;26.40;52.70;;;;;;5099218;28;20668;-43
2022/08/16 11:42:25;;;;;;;2.03;1.83;;;26.40;52.60;;;;;;5091737;28;20024;-52
2022/08/16 11:44:51;;;;;;;2.95;2.10;;;26.40;52.60;;;;;;5101573;28;20073;-44
2022/08/16 11:47:17;;;;;;;2.22;2.03;;;26.40;52.70;;;;;;5098601;28;20081;-42
2022/08/16 11:49:42;;;;;;;2.70;2.20;;;26.40;52.50;;;;;;5094823;28;20051;-43
2022/08/16 11:52:08;;;;;;;3.03;2.13;;;26.40;52.60;;;;;;5086617;28;20461;-42
2022/08/16 11:54:34;;;;;;;3.38;2.30;;;26.50;52.60;;;;;;5085773;28;20032;-42
2022/08/16 11:57:00;;;;;;;2.47;2.28;;;26.50;52.60;;;;;;5096381;28;20441;-42
2022/08/16 11:59:28;;;;;;;2.90;2.22;;;26.50;52.60;;;;;;5092169;28;20024;-52
2022/08/16 12:01:55;;;;;;;2.25;2.05;;;26.50;52.50;;;;;;5082975;28;20061;-44
2022/08/16 12:04:20;;;;;;;4.25;2.40;;;26.50;52.50;;;;;;5090810;28;20044;-43
2022/08/16 12:06:46;;;;;;;2.60;2.25;;;26.50;52.50;;;;;;5091366;28;20032;-42
2022/08/16 12:09:13;;;;;;;3.55;2.25;;;26.50;52.50;;;;;;5086986;28;20098;-42
2022/08/16 12:11:39;;;;;;;3.10;2.30;;;26.50;52.50;;;;;;5093928;28;20052;-44
2022/08/16 12:14:06;;;;;;;4.63;2.10;;;26.50;52.50;;;;;;5091913;28;20412;-42
2022/08/16 12:16:33;;;;;;;2.45;2.20;;;26.50;52.60;;;;;;5090405;28;20032;-44
2022/08/16 12:18:59;;;;;;;2.42;1.90;;;26.50;52.60;;;;;;5100437;28;20036;-45
2022/08/16 12:21:25;;;;;;;2.22;2.03;;;26.50;52.70;;;;;;5089731;28;20030;-53
2022/08/16 12:23:51;;;;;;;2.80;2.25;;;26.50;52.60;;;;;;5096280;28;20034;-43
2022/08/16 12:26:16;;;;;;;2.53;2.20;;;26.50;52.70;;;;;;5094897;28;20060;-42
2022/08/16 12:28:43;;;;;;;4.70;2.15;;;26.50;52.70;;;;;;5094303;28;20028;-45
2022/08/16 12:31:08;;;;;;;2.40;2.20;;;26.50;52.70;;;;;;5092302;28;20103;-42
2022/08/16 12:33:34;;;;;;;2.85;2.10;;;26.50;52.60;;;;;;5080233;28;20103;-42
2022/08/16 12:36:00;;;;;;;2.88;2.15;;;26.50;52.60;;;;;;5101438;28;20545;-43
2022/08/16 12:38:26;;;;;;;2.25;2.05;;;26.50;52.70;;;;;;5094747;28;20102;-53
2022/08/16 12:40:52;;;;;;;2.75;2.30;;;26.50;52.80;;;;;;5091662;28;20064;-42
2022/08/16 12:43:21;;;;;;;2.40;2.20;;;26.50;53.40;;;;;;5097368;28;20381;-42
2022/08/16 12:45:51;;;;;;;2.03;1.80;;;26.50;52.80;;;;;;5098775;28;20132;-44
2022/08/16 12:51:09;;;;;;;4.95;2.10;;;26.50;52.70;;;;;;5105641;28;20059;-43